createdAt,value
2022-08-22T00:00:23.015Z,1000
2022-08-22T00:02:51.965Z,999.8
2022-08-22T00:03:05.585Z,999.8
2022-08-22T00:03:23.046Z,1000
2022-08-22T00:06:22.978Z,1000
2022-08-22T00:08:23.002Z,1000
2022-08-22T00:11:23.063Z,999.9
2022-08-22T00:14:23.038Z,1000
2022-08-22T00:17:22.978Z,999.9
2022-08-22T00:19:23.015Z,999.9
2022-08-22T00:22:22.978Z,999.9
2022-08-22T00:25:25.569Z,999.9
2022-08-22T00:28:22.978Z,999.9
2022-08-22T00:30:23.015Z,999.9
2022-08-22T00:33:22.990Z,999.9
2022-08-22T00:35:22.987Z,999.9
2022-08-22T00:37:24.333Z,999.9
2022-08-22T00:39:23.415Z,999.9
2022-08-22T00:42:29.002Z,999.9
2022-08-22T00:45:23.003Z,999.9
2022-08-22T00:48:22.975Z,1000
2022-08-22T00:50:22.989Z,999.9
2022-08-22T00:52:22.995Z,999.9
2022-08-22T00:54:23.022Z,999.9
2022-08-22T00:57:23.019Z,999.9
2022-08-22T01:00:23.002Z,999.9
2022-08-22T01:03:22.995Z,999.9
2022-08-22T01:05:23.023Z,999.9
2022-08-22T01:08:22.997Z,1000
2022-08-22T01:10:23.017Z,999.9
2022-08-22T01:12:22.988Z,999.9
2022-08-22T01:14:34.721Z,999.9
2022-08-22T01:17:23.008Z,999.9
2022-08-22T01:19:23.010Z,999.9
2022-08-22T01:21:24.044Z,999.9
2022-08-22T01:24:22.992Z,999.9
2022-08-22T01:26:23.017Z,999.8
2022-08-22T01:29:27.672Z,999.8
2022-08-22T01:32:23.061Z,999.7
2022-08-22T01:35:23.015Z,999.7
2022-08-22T01:37:23.062Z,999.7
2022-08-22T01:40:23.100Z,999.6
2022-08-22T01:43:51.532Z,999.6
2022-08-22T01:46:23.016Z,999.6
2022-08-22T01:49:23.003Z,999.6
2022-08-22T01:51:23.032Z,999.6
2022-08-22T01:54:23.016Z,999.6
2022-08-22T01:57:23.038Z,999.6
2022-08-22T01:59:23.104Z,999.6
2022-08-22T02:02:23.013Z,999.6
2022-08-22T02:05:23.004Z,999.6
2022-08-22T02:07:24.121Z,999.6
2022-08-22T02:10:23.026Z,999.7
2022-08-22T02:13:23.039Z,999.6
2022-08-22T02:16:23.031Z,999.6
2022-08-22T02:19:23.017Z,999.6
2022-08-22T02:21:23.030Z,999.6
2022-08-22T02:23:23.530Z,999.6
2022-08-22T02:26:23.035Z,999.6
2022-08-22T02:29:23.023Z,999.5
2022-08-22T02:31:23.018Z,999.6
2022-08-22T02:33:23.049Z,999.6
2022-08-22T02:35:23.069Z,999.6
2022-08-22T02:38:23.014Z,999.5
2022-08-22T02:40:23.100Z,999.5
2022-08-22T02:43:23.051Z,999.5
2022-08-22T02:46:23.057Z,999.5
2022-08-22T02:49:23.039Z,999.5
2022-08-22T02:51:23.047Z,999.6
2022-08-22T02:54:23.046Z,999.6
2022-08-22T02:56:23.041Z,999.5
2022-08-22T02:59:23.035Z,999.5
2022-08-22T03:02:23.026Z,999.5
2022-08-22T03:05:23.037Z,999.5
2022-08-22T03:07:23.058Z,999.5
2022-08-22T03:09:23.048Z,999.5
2022-08-22T03:12:23.047Z,999.6
2022-08-22T03:14:23.078Z,999.5
2022-08-22T03:17:23.053Z,999.6
2022-08-22T03:19:23.052Z,999.5
2022-08-22T03:21:23.039Z,999.5
2022-08-22T03:24:23.073Z,999.5
2022-08-22T03:26:23.063Z,999.5
2022-08-22T03:28:23.134Z,999.5
2022-08-22T03:31:23.052Z,999.5
2022-08-22T03:33:23.063Z,999.5
2022-08-22T03:36:23.081Z,999.4
2022-08-22T03:38:23.120Z,999.5
2022-08-22T03:41:23.066Z,999.5
2022-08-22T03:44:23.091Z,999.5
2022-08-22T03:47:23.043Z,999.5
2022-08-22T03:49:23.066Z,999.5
2022-08-22T03:52:23.690Z,999.5
2022-08-22T03:55:23.062Z,999.5
2022-08-22T03:57:23.056Z,999.5
2022-08-22T04:00:23.069Z,999.5
2022-08-22T04:03:23.051Z,999.5
2022-08-22T04:05:23.058Z,999.5
2022-08-22T04:08:26.099Z,999.6
2022-08-22T04:11:23.064Z,999.7
2022-08-22T04:13:24.664Z,999.7
2022-08-22T04:15:23.077Z,999.7
2022-08-22T04:18:23.057Z,999.7
2022-08-22T04:20:23.078Z,999.7
2022-08-22T04:22:23.091Z,999.7
2022-08-22T04:25:23.059Z,999.8
2022-08-22T04:28:23.639Z,999.8
2022-08-22T04:31:23.092Z,999.8
2022-08-22T04:33:23.118Z,999.7
2022-08-22T04:36:23.098Z,999.8
2022-08-22T04:39:23.061Z,999.8
2022-08-22T04:41:23.084Z,999.8
2022-08-22T04:43:30.269Z,999.8
2022-08-22T04:46:23.072Z,999.8
2022-08-22T04:48:23.126Z,999.8
2022-08-22T04:51:23.065Z,999.8
2022-08-22T04:54:23.058Z,999.8
2022-08-22T04:56:23.078Z,999.9
2022-08-22T04:59:23.083Z,999.9
2022-08-22T05:02:23.076Z,999.8
2022-08-22T05:04:23.088Z,999.8
2022-08-22T05:06:23.080Z,999.8
2022-08-22T05:09:23.074Z,999.9
2022-08-22T05:11:23.064Z,999.9
2022-08-22T05:13:23.105Z,999.9
2022-08-22T05:15:23.525Z,999.9
2022-08-22T05:18:23.082Z,999.9
2022-08-22T05:21:23.123Z,999.9
2022-08-22T05:23:23.096Z,999.8
2022-08-22T05:26:23.100Z,999.8
2022-08-22T05:29:23.099Z,999.9
2022-08-22T05:32:23.109Z,999.8
2022-08-22T05:35:23.083Z,999.9
2022-08-22T05:38:23.086Z,999.9
2022-08-22T05:41:23.091Z,999.9
2022-08-22T05:43:23.096Z,999.9
2022-08-22T05:45:23.112Z,999.9
2022-08-22T05:48:23.085Z,1000
2022-08-22T05:50:23.093Z,1000
2022-08-22T05:53:23.116Z,1000
2022-08-22T05:56:23.090Z,1000
2022-08-22T05:58:23.118Z,1000
2022-08-22T06:01:23.141Z,1000
2022-08-22T06:03:23.119Z,1000
2022-08-22T06:06:23.106Z,1000
2022-08-22T06:09:23.080Z,1000.1
2022-08-22T06:11:23.099Z,1000.1
2022-08-22T06:13:23.572Z,1000.1
2022-08-22T06:15:23.125Z,1000
2022-08-22T06:18:23.094Z,1000
2022-08-22T06:21:23.127Z,1000
2022-08-22T06:23:23.140Z,1000.1
2022-08-22T06:26:23.162Z,1000.1
2022-08-22T06:29:23.116Z,1000.1
2022-08-22T06:31:23.115Z,1000.2
2022-08-22T06:34:23.154Z,1000.2
2022-08-22T06:36:23.092Z,1000.3
2022-08-22T06:38:23.139Z,1000.3
2022-08-22T06:41:55.395Z,1000.3
2022-08-22T06:43:23.144Z,1000.4
2022-08-22T06:45:23.178Z,1000.3
2022-08-22T06:48:23.115Z,1000.3
2022-08-22T06:50:30.357Z,1000.2
2022-08-22T06:53:23.197Z,1000.3
2022-08-22T06:56:23.116Z,1000.3
2022-08-22T06:58:23.153Z,1000.3
2022-08-22T07:00:23.186Z,1000.3
2022-08-22T07:03:23.130Z,1000.4
2022-08-22T07:05:23.178Z,1000.4
2022-08-22T07:08:55.241Z,1000.4
2022-08-22T07:10:23.148Z,1000.4
2022-08-22T07:13:23.155Z,1000.4
2022-08-22T07:16:23.103Z,1000.5
2022-08-22T07:18:23.146Z,1000.5
2022-08-22T07:21:23.349Z,1000.5
2022-08-22T07:24:23.123Z,1000.5
2022-08-22T07:26:23.141Z,1000.5
2022-08-22T07:29:23.199Z,1000.5
2022-08-22T07:32:23.122Z,1000.5
2022-08-22T07:34:23.122Z,1000.5
2022-08-22T07:37:23.127Z,1000.5
2022-08-22T07:39:23.170Z,1000.5
2022-08-22T07:42:24.959Z,1000.4
2022-08-22T07:44:23.148Z,1000.4
2022-08-22T07:47:26.234Z,1000.5
2022-08-22T07:49:23.160Z,1000.5
2022-08-22T07:52:23.144Z,1000.5
2022-08-22T07:55:23.151Z,1000.5
2022-08-22T07:57:23.126Z,1000.5
2022-08-22T07:59:23.121Z,1000.5
2022-08-22T08:01:23.216Z,1000.4
2022-08-22T08:04:23.123Z,1000.4
2022-08-22T08:06:23.160Z,1000.5
2022-08-22T08:09:23.180Z,1000.4
2022-08-22T08:12:23.143Z,1000.5
2022-08-22T08:15:23.127Z,1000.4
2022-08-22T08:17:23.195Z,1000.4
2022-08-22T08:20:23.234Z,1000.3
2022-08-22T08:23:23.517Z,1000.4
2022-08-22T08:25:23.136Z,1000.4
2022-08-22T08:27:23.136Z,1000.4
2022-08-22T08:30:23.269Z,1000.4
2022-08-22T08:33:24.496Z,1000.4
2022-08-22T08:36:23.138Z,1000.4
2022-08-22T08:38:23.216Z,1000.4
2022-08-22T08:41:23.182Z,1000.4
2022-08-22T08:43:23.161Z,1000.4
2022-08-22T08:45:23.187Z,1000.3
2022-08-22T08:47:23.183Z,1000.3
2022-08-22T08:50:23.173Z,1000.3
2022-08-22T08:52:24.281Z,1000.3
2022-08-22T08:55:23.227Z,1000.3
2022-08-22T08:58:23.166Z,1000.4
2022-08-22T09:00:23.239Z,1000.3
2022-08-22T09:03:29.949Z,1000.3
2022-08-22T09:06:23.182Z,1000.3
2022-08-22T09:09:30.354Z,1000.4
2022-08-22T09:12:23.143Z,1000.3
2022-08-22T09:14:23.181Z,1000.3
2022-08-22T09:17:23.153Z,1000.3
2022-08-22T09:19:23.189Z,1000.3
2022-08-22T09:22:23.205Z,1000.4
2022-08-22T09:25:23.445Z,1000.3
2022-08-22T09:27:24.456Z,1000.3
2022-08-22T09:29:23.168Z,1000.3
2022-08-22T09:35:23.170Z,1000.3
2022-08-22T09:37:23.182Z,1000.3
2022-08-22T09:42:23.180Z,1000.2
2022-08-22T09:45:23.177Z,1000.2
2022-08-22T09:47:24.248Z,1000.2
2022-08-22T09:49:23.209Z,1000.2
2022-08-22T09:52:33.209Z,1000.1
2022-08-22T09:55:24.278Z,1000.1
2022-08-22T09:57:23.201Z,1000.1
2022-08-22T10:00:23.260Z,1000.1
2022-08-22T10:02:23.257Z,1000
2022-08-22T10:04:23.226Z,1000
2022-08-22T10:07:23.186Z,1000
2022-08-22T10:10:23.206Z,1000
2022-08-22T10:12:24.167Z,1000
2022-08-22T10:15:23.199Z,999.9
2022-08-22T10:17:23.216Z,1000
2022-08-22T10:20:23.232Z,999.9
2022-08-22T10:23:23.171Z,1000
2022-08-22T10:25:23.166Z,999.9
2022-08-22T10:27:23.224Z,999.9
2022-08-22T10:30:23.226Z,999.9
2022-08-22T10:32:26.920Z,999.9
2022-08-22T10:35:23.193Z,999.9
2022-08-22T10:37:23.701Z,999.9
2022-08-22T10:39:23.205Z,999.9
2022-08-22T10:41:23.201Z,999.8
2022-08-22T10:44:23.257Z,999.8
2022-08-22T10:47:23.195Z,999.8
2022-08-22T10:49:23.211Z,999.7
2022-08-22T10:52:23.245Z,999.7
2022-08-22T10:55:24.574Z,999.7
2022-08-22T10:58:23.222Z,999.7
2022-08-22T11:00:25.544Z,999.7
2022-08-22T11:03:23.212Z,999.6
2022-08-22T11:05:26.354Z,999.5
2022-08-22T11:07:23.215Z,999.5
2022-08-22T11:10:23.208Z,999.5
2022-08-22T11:12:23.261Z,999.5
2022-08-22T11:15:28.534Z,999.5
2022-08-22T11:17:23.550Z,999.5
2022-08-22T11:20:23.208Z,999.5
2022-08-22T11:23:23.189Z,999.5
2022-08-22T11:26:29.259Z,999.5
2022-08-22T11:28:23.217Z,999.4
2022-08-22T11:31:23.226Z,999.4
2022-08-22T11:33:32.548Z,999.3
2022-08-22T11:36:26.279Z,999.3
2022-08-22T11:39:23.243Z,999.3
2022-08-22T11:42:23.201Z,999.3
2022-08-22T11:45:23.226Z,999.3
2022-08-22T11:47:26.527Z,999.3
2022-08-22T11:50:23.195Z,999.2
2022-08-22T11:52:23.287Z,999.2
2022-08-22T11:55:23.200Z,999.2
2022-08-22T11:57:23.253Z,999.2
2022-08-22T12:00:23.250Z,999.2
2022-08-22T12:03:23.589Z,999.1
2022-08-22T12:05:24.391Z,999.2
2022-08-22T12:08:23.273Z,999.1
2022-08-22T12:11:23.233Z,999.1
2022-08-22T12:14:26.967Z,999.1
2022-08-22T12:16:23.264Z,999.1
2022-08-22T12:19:23.242Z,999
2022-08-22T12:25:23.246Z,999
2022-08-22T12:27:33.545Z,999.1
2022-08-22T12:31:04.369Z,999
2022-08-22T12:33:33.534Z,999
2022-08-22T12:35:33.601Z,999
2022-08-22T12:38:27.885Z,999
2022-08-22T12:40:26.106Z,999
2022-08-22T12:43:23.464Z,999
2022-08-22T12:46:23.223Z,999
2022-08-22T12:48:23.231Z,998.9
2022-08-22T12:51:23.273Z,998.9
2022-08-22T12:54:23.255Z,998.9
2022-08-22T12:57:23.620Z,998.8
2022-08-22T12:59:23.251Z,998.8
2022-08-22T13:02:23.321Z,998.8
2022-08-22T13:05:23.233Z,998.7
2022-08-22T13:07:23.282Z,998.7
2022-08-22T13:10:23.274Z,998.7
2022-08-22T13:12:23.266Z,998.7
2022-08-22T13:14:25.612Z,998.7
2022-08-22T13:16:23.297Z,998.6
2022-08-22T13:19:23.247Z,998.6
2022-08-22T13:21:23.251Z,998.7
2022-08-22T13:23:23.275Z,998.7
2022-08-22T13:26:32.133Z,998.6
2022-08-22T13:29:26.698Z,998.6
2022-08-22T13:33:23.290Z,998.6
2022-08-22T13:35:23.816Z,998.6
2022-08-22T13:38:25.569Z,998.6
2022-08-22T13:41:23.293Z,998.6
2022-08-22T13:43:30.524Z,998.5
2022-08-22T13:46:23.261Z,998.5
2022-08-22T13:48:23.281Z,998.6
2022-08-22T13:50:23.286Z,998.5
2022-08-22T13:53:23.320Z,998.5
2022-08-22T13:56:23.266Z,998.4
2022-08-22T13:58:24.831Z,998.4
2022-08-22T14:01:25.332Z,998.4
2022-08-22T14:03:23.334Z,998.4
2022-08-22T14:06:32.467Z,998.4
2022-08-22T14:09:29.377Z,998.4
2022-08-22T14:11:23.298Z,998.3
2022-08-22T14:13:30.597Z,998.3
2022-08-22T14:16:23.302Z,998.3
2022-08-22T14:18:23.722Z,998.2
2022-08-22T14:20:28.473Z,998.3
2022-08-22T14:22:32.194Z,998.2
2022-08-22T14:25:23.299Z,998.2
2022-08-22T14:27:23.312Z,998.3
2022-08-22T14:30:23.551Z,998.2
2022-08-22T14:32:25.905Z,998.2
2022-08-22T14:35:33.570Z,998.2
2022-08-22T14:38:27.522Z,998.2
2022-08-22T14:41:23.488Z,998.1
2022-08-22T14:43:23.364Z,998.1
2022-08-22T14:46:23.498Z,998.2
2022-08-22T14:48:30.719Z,998
2022-08-22T14:50:23.289Z,998
2022-08-22T14:53:25.055Z,998
2022-08-22T14:56:23.286Z,998
2022-08-22T14:58:26.601Z,998
2022-08-22T15:01:23.443Z,998
2022-08-22T15:04:23.297Z,998
2022-08-22T15:06:23.370Z,998
2022-08-22T15:09:23.299Z,997.9
2022-08-22T15:12:23.326Z,997.9
2022-08-22T15:14:23.343Z,997.9
2022-08-22T15:16:23.823Z,997.9
2022-08-22T15:19:23.345Z,997.8
2022-08-22T15:21:24.121Z,997.9
2022-08-22T15:24:23.330Z,997.8
2022-08-22T15:26:23.320Z,997.9
2022-08-22T15:29:23.337Z,997.9
2022-08-22T15:31:23.325Z,997.9
2022-08-22T15:33:23.385Z,997.9
2022-08-22T15:36:23.306Z,997.9
2022-08-22T15:38:23.381Z,997.9
2022-08-22T15:41:23.344Z,997.9
2022-08-22T15:43:23.338Z,997.8
2022-08-22T15:45:23.335Z,997.8
2022-08-22T15:47:23.896Z,997.7
2022-08-22T15:50:23.340Z,997.7
2022-08-22T15:53:23.340Z,997.7
2022-08-22T15:55:23.353Z,997.7
2022-08-22T15:57:23.329Z,997.7
2022-08-22T15:59:23.327Z,997.7
2022-08-22T16:01:23.351Z,997.7
2022-08-22T16:04:23.342Z,997.7
2022-08-22T16:06:23.375Z,997.6
2022-08-22T16:09:23.346Z,997.7
2022-08-22T16:11:23.447Z,997.7
2022-08-22T16:14:23.369Z,997.6
2022-08-22T16:17:23.381Z,997.6
2022-08-22T16:19:23.374Z,997.6
2022-08-22T16:22:23.418Z,997.6
2022-08-22T16:25:23.346Z,997.6
2022-08-22T16:27:23.353Z,997.6
2022-08-22T16:29:23.352Z,997.7
2022-08-22T16:32:23.377Z,997.7
2022-08-22T16:34:23.366Z,997.6
2022-08-22T16:37:23.383Z,997.7
2022-08-22T16:40:23.374Z,997.7
2022-08-22T16:42:23.377Z,997.6
2022-08-22T16:44:23.383Z,997.6
2022-08-22T16:47:23.387Z,997.6
2022-08-22T16:50:23.388Z,997.6
2022-08-22T16:53:23.361Z,997.6
2022-08-22T16:55:23.367Z,997.6
2022-08-22T16:57:23.396Z,997.7
2022-08-22T17:00:23.348Z,997.6
2022-08-22T17:02:23.382Z,997.7
2022-08-22T17:05:23.388Z,997.7
2022-08-22T17:08:23.379Z,997.7
2022-08-22T17:10:23.378Z,997.7
2022-08-22T17:13:26.420Z,997.7
2022-08-22T17:15:26.514Z,997.7
2022-08-22T17:18:23.396Z,997.7
2022-08-22T17:21:25.966Z,997.7
2022-08-22T17:24:32.495Z,997.8
2022-08-22T17:26:23.403Z,997.7
2022-08-22T17:29:23.382Z,997.8
2022-08-22T17:31:23.401Z,997.8
2022-08-22T17:34:23.415Z,997.7
2022-08-22T17:37:23.397Z,997.7
2022-08-22T17:40:23.457Z,997.7
2022-08-22T17:42:23.482Z,997.7
2022-08-22T17:45:27.159Z,997.7
2022-08-22T17:47:23.407Z,997.7
2022-08-22T17:49:23.411Z,997.8
2022-08-22T17:52:23.403Z,997.8
2022-08-22T17:55:23.437Z,997.8
2022-08-22T17:58:31.820Z,997.8
2022-08-22T18:01:23.454Z,997.9
2022-08-22T18:04:23.431Z,997.9
2022-08-22T18:06:23.440Z,998
2022-08-22T18:09:23.425Z,997.9
2022-08-22T18:12:23.395Z,997.9
2022-08-22T18:14:23.452Z,998
2022-08-22T18:16:23.523Z,998
2022-08-22T18:19:23.423Z,998
2022-08-22T18:21:23.435Z,998
2022-08-22T18:24:23.427Z,998
2022-08-22T18:27:29.574Z,998
2022-08-22T18:29:23.444Z,998
2022-08-22T18:32:56.010Z,998
2022-08-22T18:35:23.451Z,998
2022-08-22T18:38:23.386Z,998
2022-08-22T18:40:23.425Z,998
2022-08-22T18:42:23.408Z,998
2022-08-22T18:45:23.448Z,998.1
2022-08-22T18:48:23.414Z,998.1
2022-08-22T18:51:24.715Z,998.1
2022-08-22T18:54:23.387Z,998.1
2022-08-22T18:56:23.387Z,998
2022-08-22T18:59:23.447Z,998.1
2022-08-22T19:01:23.499Z,998.1
2022-08-22T19:04:23.423Z,998.1
2022-08-22T19:06:23.454Z,998.1
2022-08-22T19:09:23.867Z,998.1
2022-08-22T19:12:23.432Z,998.1
2022-08-22T19:15:23.465Z,998.2
2022-08-22T19:18:23.416Z,998.3
2022-08-22T19:20:23.419Z,998.3
2022-08-22T19:23:23.515Z,998.3
2022-08-22T19:25:23.486Z,998.3
2022-08-22T19:27:23.594Z,998.4
2022-08-22T19:30:23.433Z,998.4
2022-08-22T19:33:25.585Z,998.4
2022-08-22T19:35:23.637Z,998.4
2022-08-22T19:38:23.491Z,998.4
2022-08-22T19:42:23.456Z,998.4
2022-08-22T19:45:38.747Z,998.4
2022-08-22T19:46:44.030Z,998.4
2022-08-22T19:49:33.706Z,998.4
2022-08-22T19:52:23.459Z,998.4
2022-08-22T19:54:23.439Z,998.4
2022-08-22T19:57:23.440Z,998.5
2022-08-22T19:59:23.432Z,998.4
2022-08-22T20:01:23.556Z,998.4
2022-08-22T20:04:23.426Z,998.4
2022-08-22T20:06:42.792Z,998.4
2022-08-22T20:08:24.990Z,998.5
2022-08-22T20:11:23.436Z,998.7
2022-08-22T20:13:23.450Z,998.7
2022-08-22T20:16:23.449Z,998.6
2022-08-22T20:19:23.417Z,998.6
2022-08-22T20:22:23.426Z,998.6
2022-08-22T20:24:23.454Z,998.6
2022-08-22T20:27:23.425Z,998.6
2022-08-22T20:30:23.459Z,998.6
2022-08-22T20:32:23.440Z,998.6
2022-08-22T20:34:23.466Z,998.5
2022-08-22T20:36:33.737Z,998.5
2022-08-22T20:38:33.738Z,998.5
2022-08-22T20:41:23.562Z,998.6
2022-08-22T20:43:23.440Z,998.6
2022-08-22T20:45:23.442Z,998.5
2022-08-22T20:48:23.457Z,998.6
2022-08-22T20:51:23.462Z,998.6
2022-08-22T20:54:23.441Z,998.7
2022-08-22T20:57:23.459Z,998.7
2022-08-22T21:00:23.445Z,998.7
2022-08-22T21:03:23.454Z,998.8
2022-08-22T21:06:23.445Z,998.8
2022-08-22T21:08:23.434Z,998.8
2022-08-22T21:11:23.478Z,998.8
2022-08-22T21:13:23.504Z,998.9
2022-08-22T21:17:23.471Z,998.8
2022-08-22T21:19:23.491Z,998.8
2022-08-22T21:21:23.517Z,998.8
2022-08-22T21:24:23.515Z,998.8
2022-08-22T21:27:23.451Z,998.8
2022-08-22T21:31:23.479Z,998.8
2022-08-22T21:33:23.569Z,998.8
2022-08-22T21:36:23.477Z,998.8
2022-08-22T21:39:23.505Z,998.8
2022-08-22T21:41:33.758Z,998.8
2022-08-22T21:43:33.809Z,998.9
2022-08-22T21:46:23.446Z,998.9
2022-08-22T21:48:23.466Z,998.9
2022-08-22T21:51:23.513Z,998.9
2022-08-22T21:53:23.472Z,998.9
2022-08-22T21:55:23.531Z,998.9
2022-08-22T21:58:35.222Z,998.9
2022-08-22T22:00:23.469Z,999
2022-08-22T22:03:23.478Z,999
2022-08-22T22:06:23.496Z,999
2022-08-22T22:09:23.499Z,998.9
2022-08-22T22:12:23.488Z,999
2022-08-22T22:14:23.464Z,999
2022-08-22T22:17:23.476Z,999
2022-08-22T22:19:23.470Z,999
2022-08-22T22:21:23.478Z,999.1
2022-08-22T22:23:23.483Z,999.1
2022-08-22T22:26:23.498Z,999.1
2022-08-22T22:28:33.782Z,999.1
2022-08-22T22:30:33.782Z,999.1
2022-08-22T22:33:23.467Z,999.1
2022-08-22T22:36:23.497Z,999.2
2022-08-22T22:38:24.336Z,999.2
2022-08-22T22:40:23.557Z,999.2
2022-08-22T22:42:23.498Z,999.3
2022-08-22T22:45:23.515Z,999.3
2022-08-22T22:48:24.373Z,999.3
2022-08-22T22:50:23.488Z,999.4
2022-08-22T22:52:23.504Z,999.4
2022-08-22T22:54:34.136Z,999.4
2022-08-22T22:57:25.503Z,999.4
2022-08-22T22:59:24.560Z,999.4
2022-08-22T23:02:23.508Z,999.4
2022-08-22T23:05:23.486Z,999.4
2022-08-22T23:07:23.521Z,999.3
2022-08-22T23:10:23.490Z,999.4
2022-08-22T23:12:23.501Z,999.3
2022-08-22T23:15:23.527Z,999.3
2022-08-22T23:18:26.721Z,999.4
2022-08-22T23:21:23.521Z,999.4
2022-08-22T23:24:23.501Z,999.4
2022-08-22T23:27:55.721Z,999.4
2022-08-22T23:30:23.523Z,999.4
2022-08-22T23:33:27.032Z,999.5
2022-08-22T23:36:23.549Z,999.5
2022-08-22T23:38:23.646Z,999.5
2022-08-22T23:41:23.564Z,999.6
2022-08-22T23:44:23.518Z,999.6
2022-08-22T23:47:23.542Z,999.6
2022-08-22T23:50:24.753Z,999.6
2022-08-22T23:52:35.896Z,999.6
2022-08-22T23:54:36.768Z,999.6
2022-08-22T23:57:26.605Z,999.6
